sensor_id;sensor_type;location;lat;lon;timestamp;P1;durP1;ratioP1;P2;durP2;ratioP2
61499;SDS011;47361;49.996;19.918;2023-06-19T00:00:26;9.3;;;7.6;;
61499;SDS011;47361;49.996;19.918;2023-06-19T00:01:26;9.3;;;7.6;;
61499;SDS011;47361;49.996;19.918;2023-06-19T00:02:26;8.3;;;7.2;;
61499;SDS011;47361;49.996;19.918;2023-06-19T00:04:26;8.3;;;7.2;;
61499;SDS011;47361;49.996;19.918;2023-06-19T00:06:26;8.3;;;7.2;;
61499;SDS011;47361;49.996;19.918;2023-06-19T00:07:26;8.2;;;6.9;;
61499;SDS011;47361;49.996;19.918;2023-06-19T00:09:26;8.2;;;6.9;;
61499;SDS011;47361;49.996;19.918;2023-06-19T00:10:26;8.2;;;6.9;;
61499;SDS011;47361;49.996;19.918;2023-06-19T00:13:26;8.7;;;6.7;;
61499;SDS011;47361;49.996;19.918;2023-06-19T00:19:26;9.0;;;7.3;;
61499;SDS011;47361;49.996;19.918;2023-06-19T00:21:26;9.0;;;7.3;;
61499;SDS011;47361;49.996;19.918;2023-06-19T00:22:26;8.5;;;7.1;;
61499;SDS011;47361;49.996;19.918;2023-06-19T00:27:26;9.0;;;7.3;;
61499;SDS011;47361;49.996;19.918;2023-06-19T00:31:26;9.0;;;7.3;;
61499;SDS011;47361;49.996;19.918;2023-06-19T00:34:29;9.3;;;7.2;;
61499;SDS011;47361;49.996;19.918;2023-06-19T00:36:26;9.3;;;7.2;;
61499;SDS011;47361;49.996;19.918;2023-06-19T00:42:26;8.8;;;7.6;;
61499;SDS011;47361;49.996;19.918;2023-06-19T00:44:26;8.8;;;7.6;;
61499;SDS011;47361;49.996;19.918;2023-06-19T00:47:26;8.9;;;7.4;;
61499;SDS011;47361;49.996;19.918;2023-06-19T00:52:26;10.0;;;7.0;;
61499;SDS011;47361;49.996;19.918;2023-06-19T00:53:26;10.0;;;7.0;;
61499;SDS011;47361;49.996;19.918;2023-06-19T00:55:29;10.0;;;7.0;;
61499;SDS011;47361;49.996;19.918;2023-06-19T00:57:26;9.2;;;7.6;;
61499;SDS011;47361;49.996;19.918;2023-06-19T01:02:27;8.8;;;7.4;;
61499;SDS011;47361;49.996;19.918;2023-06-19T01:07:29;10.6;;;7.3;;
61499;SDS011;47361;49.996;19.918;2023-06-19T01:09:29;10.6;;;7.3;;
61499;SDS011;47361;49.996;19.918;2023-06-19T01:11:30;10.6;;;7.3;;
61499;SDS011;47361;49.996;19.918;2023-06-19T01:14:31;7.7;;;6.9;;
61499;SDS011;47361;49.996;19.918;2023-06-19T01:15:26;7.7;;;6.9;;
61499;SDS011;47361;49.996;19.918;2023-06-19T01:16:27;7.7;;;6.9;;
61499;SDS011;47361;49.996;19.918;2023-06-19T01:17:27;8.5;;;7.3;;
61499;SDS011;47361;49.996;19.918;2023-06-19T01:18:27;8.5;;;7.3;;
61499;SDS011;47361;49.996;19.918;2023-06-19T01:20:27;8.5;;;7.3;;
61499;SDS011;47361;49.996;19.918;2023-06-19T01:22:27;8.0;;;7.2;;
61499;SDS011;47361;49.996;19.918;2023-06-19T01:27:27;8.6;;;6.8;;
61499;SDS011;47361;49.996;19.918;2023-06-19T01:34:27;9.1;;;7.3;;
61499;SDS011;47361;49.996;19.918;2023-06-19T01:35:28;9.1;;;7.3;;
61499;SDS011;47361;49.996;19.918;2023-06-19T01:36:28;9.1;;;7.3;;
61499;SDS011;47361;49.996;19.918;2023-06-19T01:38:28;8.5;;;6.7;;
61499;SDS011;47361;49.996;19.918;2023-06-19T01:40:28;8.5;;;6.7;;
61499;SDS011;47361;49.996;19.918;2023-06-19T01:41:27;8.5;;;6.7;;
61499;SDS011;47361;49.996;19.918;2023-06-19T01:44:26;7.8;;;6.9;;
61499;SDS011;47361;49.996;19.918;2023-06-19T01:45:27;7.8;;;6.9;;
61499;SDS011;47361;49.996;19.918;2023-06-19T01:49:26;9.8;;;7.6;;
61499;SDS011;47361;49.996;19.918;2023-06-19T01:56:27;8.1;;;6.7;;
61499;SDS011;47361;49.996;19.918;2023-06-19T02:00:26;8.8;;;7.7;;
61499;SDS011;47361;49.996;19.918;2023-06-19T02:03:26;8.2;;;6.5;;
61499;SDS011;47361;49.996;19.918;2023-06-19T02:06:26;8.2;;;6.5;;
61499;SDS011;47361;49.996;19.918;2023-06-19T02:07:26;9.1;;;7.1;;
61499;SDS011;47361;49.996;19.918;2023-06-19T02:08:26;9.1;;;7.1;;
61499;SDS011;47361;49.996;19.918;2023-06-19T02:10:26;9.1;;;7.1;;
61499;SDS011;47361;49.996;19.918;2023-06-19T02:11:26;9.1;;;7.1;;
61499;SDS011;47361;49.996;19.918;2023-06-19T02:12:26;7.8;;;7.0;;
61499;SDS011;47361;49.996;19.918;2023-06-19T02:14:26;7.8;;;7.0;;
61499;SDS011;47361;49.996;19.918;2023-06-19T02:17:26;8.8;;;7.5;;
61499;SDS011;47361;49.996;19.918;2023-06-19T02:19:26;8.8;;;7.5;;
61499;SDS011;47361;49.996;19.918;2023-06-19T02:22:26;8.2;;;6.5;;
61499;SDS011;47361;49.996;19.918;2023-06-19T02:26:26;8.2;;;6.5;;
61499;SDS011;47361;49.996;19.918;2023-06-19T02:27:26;9.7;;;7.3;;
61499;SDS011;47361;49.996;19.918;2023-06-19T02:29:26;9.7;;;7.3;;
61499;SDS011;47361;49.996;19.918;2023-06-19T02:31:26;9.7;;;7.3;;
61499;SDS011;47361;49.996;19.918;2023-06-19T02:34:26;7.6;;;6.8;;
61499;SDS011;47361;49.996;19.918;2023-06-19T02:41:27;7.9;;;6.7;;
61499;SDS011;47361;49.996;19.918;2023-06-19T02:42:26;8.9;;;7.0;;
61499;SDS011;47361;49.996;19.918;2023-06-19T02:45:26;8.9;;;7.0;;
61499;SDS011;47361;49.996;19.918;2023-06-19T02:47:26;10.4;;;6.7;;
61499;SDS011;47361;49.996;19.918;2023-06-19T02:48:27;10.4;;;6.7;;
61499;SDS011;47361;49.996;19.918;2023-06-19T02:50:26;10.4;;;6.7;;
61499;SDS011;47361;49.996;19.918;2023-06-19T02:52:27;9.0;;;7.0;;
61499;SDS011;47361;49.996;19.918;2023-06-19T02:53:26;9.0;;;7.0;;
61499;SDS011;47361;49.996;19.918;2023-06-19T02:58:26;8.4;;;7.2;;
61499;SDS011;47361;49.996;19.918;2023-06-19T02:59:26;8.4;;;7.2;;
61499;SDS011;47361;49.996;19.918;2023-06-19T03:00:26;8.4;;;7.2;;
61499;SDS011;47361;49.996;19.918;2023-06-19T03:02:26;8.5;;;6.9;;
61499;SDS011;47361;49.996;19.918;2023-06-19T03:04:26;8.5;;;6.9;;
61499;SDS011;47361;49.996;19.918;2023-06-19T03:07:26;8.6;;;6.4;;
61499;SDS011;47361;49.996;19.918;2023-06-19T03:11:26;8.6;;;6.4;;
61499;SDS011;47361;49.996;19.918;2023-06-19T03:12:26;9.6;;;6.7;;
61499;SDS011;47361;49.996;19.918;2023-06-19T03:13:26;9.6;;;6.7;;
61499;SDS011;47361;49.996;19.918;2023-06-19T03:17:26;8.5;;;7.0;;
61499;SDS011;47361;49.996;19.918;2023-06-19T03:20:26;8.5;;;7.0;;
61499;SDS011;47361;49.996;19.918;2023-06-19T03:22:26;7.9;;;6.9;;
61499;SDS011;47361;49.996;19.918;2023-06-19T03:23:26;7.9;;;6.9;;
61499;SDS011;47361;49.996;19.918;2023-06-19T03:32:26;8.1;;;6.9;;
61499;SDS011;47361;49.996;19.918;2023-06-19T03:34:26;8.1;;;6.9;;
61499;SDS011;47361;49.996;19.918;2023-06-19T03:37:26;7.6;;;6.8;;
61499;SDS011;47361;49.996;19.918;2023-06-19T03:39:26;7.6;;;6.8;;
61499;SDS011;47361;49.996;19.918;2023-06-19T03:42:26;9.5;;;7.0;;
61499;SDS011;47361;49.996;19.918;2023-06-19T03:49:26;8.4;;;6.6;;
61499;SDS011;47361;49.996;19.918;2023-06-19T03:51:26;9.1;;;7.4;;
61499;SDS011;47361;49.996;19.918;2023-06-19T03:57:26;9.6;;;7.0;;
61499;SDS011;47361;49.996;19.918;2023-06-19T04:01:26;8.7;;;6.7;;
61499;SDS011;47361;49.996;19.918;2023-06-19T04:02:26;8.7;;;6.7;;
61499;SDS011;47361;49.996;19.918;2023-06-19T04:06:26;8.5;;;6.9;;
61499;SDS011;47361;49.996;19.918;2023-06-19T04:12:26;8.3;;;7.0;;
61499;SDS011;47361;49.996;19.918;2023-06-19T04:16:26;9.3;;;6.8;;
61499;SDS011;47361;49.996;19.918;2023-06-19T04:17:26;9.3;;;6.8;;
61499;SDS011;47361;49.996;19.918;2023-06-19T04:21:26;9.5;;;6.9;;
61499;SDS011;47361;49.996;19.918;2023-06-19T04:24:26;9.5;;;6.9;;
61499;SDS011;47361;49.996;19.918;2023-06-19T04:27:27;12.1;;;7.4;;
61499;SDS011;47361;49.996;19.918;2023-06-19T04:31:26;11.8;;;8.1;;
61499;SDS011;47361;49.996;19.918;2023-06-19T04:32:26;11.8;;;8.1;;
61499;SDS011;47361;49.996;19.918;2023-06-19T04:36:26;8.4;;;7.5;;
61499;SDS011;47361;49.996;19.918;2023-06-19T04:38:26;8.4;;;7.5;;
61499;SDS011;47361;49.996;19.918;2023-06-19T04:39:26;8.4;;;7.5;;
61499;SDS011;47361;49.996;19.918;2023-06-19T04:41:26;9.2;;;7.6;;
61499;SDS011;47361;49.996;19.918;2023-06-19T04:42:27;9.2;;;7.6;;
61499;SDS011;47361;49.996;19.918;2023-06-19T04:43:26;9.2;;;7.6;;
61499;SDS011;47361;49.996;19.918;2023-06-19T04:45:26;9.2;;;7.6;;
61499;SDS011;47361;49.996;19.918;2023-06-19T04:46:26;11.4;;;7.5;;
61499;SDS011;47361;49.996;19.918;2023-06-19T04:47:26;11.4;;;7.5;;
61499;SDS011;47361;49.996;19.918;2023-06-19T04:48:26;11.4;;;7.5;;
61499;SDS011;47361;49.996;19.918;2023-06-19T04:50:26;11.4;;;7.5;;
61499;SDS011;47361;49.996;19.918;2023-06-19T04:51:26;9.3;;;7.5;;
61499;SDS011;47361;49.996;19.918;2023-06-19T04:52:26;9.3;;;7.5;;
61499;SDS011;47361;49.996;19.918;2023-06-19T04:55:26;9.3;;;7.5;;
61499;SDS011;47361;49.996;19.918;2023-06-19T04:56:27;9.5;;;7.5;;
61499;SDS011;47361;49.996;19.918;2023-06-19T04:57:26;9.5;;;7.5;;
61499;SDS011;47361;49.996;19.918;2023-06-19T05:01:27;11.6;;;7.4;;
61499;SDS011;47361;49.996;19.918;2023-06-19T05:02:26;11.6;;;7.4;;
61499;SDS011;47361;49.996;19.918;2023-06-19T05:03:26;11.6;;;7.4;;
61499;SDS011;47361;49.996;19.918;2023-06-19T05:05:27;11.6;;;7.4;;
61499;SDS011;47361;49.996;19.918;2023-06-19T05:06:26;10.3;;;7.1;;
61499;SDS011;47361;49.996;19.918;2023-06-19T05:07:26;10.3;;;7.1;;
61499;SDS011;47361;49.996;19.918;2023-06-19T05:09:26;10.3;;;7.1;;
61499;SDS011;47361;49.996;19.918;2023-06-19T05:11:26;9.0;;;7.2;;
61499;SDS011;47361;49.996;19.918;2023-06-19T05:12:27;9.0;;;7.2;;
61499;SDS011;47361;49.996;19.918;2023-06-19T05:14:26;9.0;;;7.2;;
61499;SDS011;47361;49.996;19.918;2023-06-19T05:16:26;10.1;;;7.1;;
61499;SDS011;47361;49.996;19.918;2023-06-19T05:17:26;10.1;;;7.1;;
61499;SDS011;47361;49.996;19.918;2023-06-19T05:18:26;10.1;;;7.1;;
61499;SDS011;47361;49.996;19.918;2023-06-19T05:20:26;10.1;;;7.1;;
61499;SDS011;47361;49.996;19.918;2023-06-19T05:21:26;8.8;;;7.2;;
61499;SDS011;47361;49.996;19.918;2023-06-19T05:23:27;8.8;;;7.2;;
61499;SDS011;47361;49.996;19.918;2023-06-19T05:26:26;9.3;;;6.6;;
61499;SDS011;47361;49.996;19.918;2023-06-19T05:31:26;11.2;;;7.4;;
61499;SDS011;47361;49.996;19.918;2023-06-19T05:32:26;11.2;;;7.4;;
61499;SDS011;47361;49.996;19.918;2023-06-19T05:34:26;11.2;;;7.4;;
61499;SDS011;47361;49.996;19.918;2023-06-19T05:36:26;7.7;;;6.6;;
61499;SDS011;47361;49.996;19.918;2023-06-19T05:37:26;7.7;;;6.6;;
61499;SDS011;47361;49.996;19.918;2023-06-19T05:41:26;7.4;;;6.6;;
61499;SDS011;47361;49.996;19.918;2023-06-19T05:43:26;7.4;;;6.6;;
61499;SDS011;47361;49.996;19.918;2023-06-19T05:56:26;8.1;;;6.1;;
61499;SDS011;47361;49.996;19.918;2023-06-19T06:01:27;6.8;;;6.0;;
61499;SDS011;47361;49.996;19.918;2023-06-19T06:05:26;6.8;;;6.0;;
61499;SDS011;47361;49.996;19.918;2023-06-19T06:10:26;5.6;;;5.0;;
61499;SDS011;47361;49.996;19.918;2023-06-19T06:11:26;8.3;;;5.6;;
61499;SDS011;47361;49.996;19.918;2023-06-19T06:16:26;6.8;;;5.6;;
61499;SDS011;47361;49.996;19.918;2023-06-19T06:18:26;6.8;;;5.6;;
61499;SDS011;47361;49.996;19.918;2023-06-19T06:19:26;6.8;;;5.6;;
61499;SDS011;47361;49.996;19.918;2023-06-19T06:21:26;8.7;;;6.4;;
61499;SDS011;47361;49.996;19.918;2023-06-19T06:22:26;8.7;;;6.4;;
61499;SDS011;47361;49.996;19.918;2023-06-19T06:23:26;8.7;;;6.4;;
61499;SDS011;47361;49.996;19.918;2023-06-19T06:31:27;7.6;;;5.8;;
61499;SDS011;47361;49.996;19.918;2023-06-19T06:34:26;7.6;;;5.8;;
61499;SDS011;47361;49.996;19.918;2023-06-19T06:36:27;6.7;;;5.8;;
61499;SDS011;47361;49.996;19.918;2023-06-19T06:41:26;7.1;;;6.4;;
61499;SDS011;47361;49.996;19.918;2023-06-19T06:42:26;7.1;;;6.4;;
61499;SDS011;47361;49.996;19.918;2023-06-19T06:45:26;7.1;;;6.4;;
61499;SDS011;47361;49.996;19.918;2023-06-19T06:46:26;7.1;;;5.8;;
61499;SDS011;47361;49.996;19.918;2023-06-19T06:51:26;7.8;;;5.9;;
61499;SDS011;47361;49.996;19.918;2023-06-19T06:54:26;7.8;;;5.9;;
61499;SDS011;47361;49.996;19.918;2023-06-19T06:56:26;10.8;;;6.0;;
61499;SDS011;47361;49.996;19.918;2023-06-19T07:01:26;7.6;;;6.1;;
61499;SDS011;47361;49.996;19.918;2023-06-19T07:02:26;7.6;;;6.1;;
61499;SDS011;47361;49.996;19.918;2023-06-19T07:05:26;7.6;;;6.1;;
61499;SDS011;47361;49.996;19.918;2023-06-19T07:07:27;8.2;;;6.4;;
61499;SDS011;47361;49.996;19.918;2023-06-19T07:11:27;7.7;;;5.7;;
61499;SDS011;47361;49.996;19.918;2023-06-19T07:13:27;7.7;;;5.7;;
61499;SDS011;47361;49.996;19.918;2023-06-19T07:15:27;7.7;;;5.7;;
61499;SDS011;47361;49.996;19.918;2023-06-19T07:16:26;8.5;;;6.2;;
61499;SDS011;47361;49.996;19.918;2023-06-19T07:18:27;8.5;;;6.2;;
61499;SDS011;47361;49.996;19.918;2023-06-19T07:21:27;9.1;;;6.0;;
61499;SDS011;47361;49.996;19.918;2023-06-19T07:23:27;9.1;;;6.0;;
61499;SDS011;47361;49.996;19.918;2023-06-19T07:26:26;6.4;;;4.9;;
61499;SDS011;47361;49.996;19.918;2023-06-19T07:27:26;6.4;;;4.9;;
61499;SDS011;47361;49.996;19.918;2023-06-19T07:31:27;6.6;;;5.3;;
61499;SDS011;47361;49.996;19.918;2023-06-19T07:37:26;6.4;;;5.4;;
61499;SDS011;47361;49.996;19.918;2023-06-19T07:41:26;9.0;;;5.5;;
61499;SDS011;47361;49.996;19.918;2023-06-19T07:43:27;9.0;;;5.5;;
61499;SDS011;47361;49.996;19.918;2023-06-19T07:46:26;5.9;;;5.3;;
61499;SDS011;47361;49.996;19.918;2023-06-19T07:47:27;5.9;;;5.3;;
61499;SDS011;47361;49.996;19.918;2023-06-19T07:48:27;5.9;;;5.3;;
61499;SDS011;47361;49.996;19.918;2023-06-19T07:50:26;5.9;;;5.3;;
61499;SDS011;47361;49.996;19.918;2023-06-19T07:51:26;7.4;;;5.0;;
61499;SDS011;47361;49.996;19.918;2023-06-19T07:53:26;7.4;;;5.0;;
61499;SDS011;47361;49.996;19.918;2023-06-19T07:56:27;6.6;;;5.1;;
61499;SDS011;47361;49.996;19.918;2023-06-19T07:57:26;6.6;;;5.1;;
61499;SDS011;47361;49.996;19.918;2023-06-19T08:00:26;6.6;;;5.1;;
61499;SDS011;47361;49.996;19.918;2023-06-19T08:05:26;5.9;;;4.9;;
61499;SDS011;47361;49.996;19.918;2023-06-19T08:06:26;7.3;;;5.2;;
61499;SDS011;47361;49.996;19.918;2023-06-19T08:10:27;7.3;;;5.2;;
61499;SDS011;47361;49.996;19.918;2023-06-19T08:12:27;6.0;;;5.0;;
61499;SDS011;47361;49.996;19.918;2023-06-19T08:13:26;6.0;;;5.0;;
61499;SDS011;47361;49.996;19.918;2023-06-19T08:16:27;5.7;;;4.8;;
61499;SDS011;47361;49.996;19.918;2023-06-19T08:18:26;5.7;;;4.8;;
61499;SDS011;47361;49.996;19.918;2023-06-19T08:21:27;6.0;;;4.6;;
61499;SDS011;47361;49.996;19.918;2023-06-19T08:23:26;6.0;;;4.6;;
61499;SDS011;47361;49.996;19.918;2023-06-19T08:26:26;6.2;;;5.1;;
61499;SDS011;47361;49.996;19.918;2023-06-19T08:27:26;6.2;;;5.1;;
61499;SDS011;47361;49.996;19.918;2023-06-19T08:30:27;6.2;;;5.1;;
61499;SDS011;47361;49.996;19.918;2023-06-19T08:31:26;5.5;;;4.7;;
61499;SDS011;47361;49.996;19.918;2023-06-19T08:32:27;5.5;;;4.7;;
61499;SDS011;47361;49.996;19.918;2023-06-19T08:34:27;5.5;;;4.7;;
61499;SDS011;47361;49.996;19.918;2023-06-19T08:36:26;5.3;;;4.4;;
61499;SDS011;47361;49.996;19.918;2023-06-19T08:45:27;5.0;;;4.5;;
61499;SDS011;47361;49.996;19.918;2023-06-19T08:47:28;5.7;;;4.1;;
61499;SDS011;47361;49.996;19.918;2023-06-19T08:50:27;5.7;;;4.1;;
61499;SDS011;47361;49.996;19.918;2023-06-19T08:51:27;5.0;;;4.3;;
61499;SDS011;47361;49.996;19.918;2023-06-19T08:52:27;5.0;;;4.3;;
61499;SDS011;47361;49.996;19.918;2023-06-19T08:54:26;5.0;;;4.3;;
61499;SDS011;47361;49.996;19.918;2023-06-19T08:56:27;8.1;;;4.6;;
61499;SDS011;47361;49.996;19.918;2023-06-19T08:57:34;8.1;;;4.6;;
61499;SDS011;47361;49.996;19.918;2023-06-19T09:04:27;4.9;;;4.4;;
61499;SDS011;47361;49.996;19.918;2023-06-19T09:10:27;5.6;;;4.3;;
61499;SDS011;47361;49.996;19.918;2023-06-19T09:16:36;5.6;;;4.2;;
61499;SDS011;47361;49.996;19.918;2023-06-19T09:17:27;5.6;;;4.2;;
61499;SDS011;47361;49.996;19.918;2023-06-19T09:19:27;5.6;;;4.2;;
61499;SDS011;47361;49.996;19.918;2023-06-19T09:22:28;4.1;;;3.6;;
61499;SDS011;47361;49.996;19.918;2023-06-19T09:29:27;6.2;;;4.8;;
61499;SDS011;47361;49.996;19.918;2023-06-19T09:31:34;4.8;;;4.1;;
61499;SDS011;47361;49.996;19.918;2023-06-19T09:33:28;4.8;;;4.1;;
61499;SDS011;47361;49.996;19.918;2023-06-19T09:35:27;4.5;;;4.1;;
61499;SDS011;47361;49.996;19.918;2023-06-19T09:39:28;4.5;;;4.1;;
61499;SDS011;47361;49.996;19.918;2023-06-19T09:40:27;6.8;;;4.3;;
61499;SDS011;47361;49.996;19.918;2023-06-19T09:41:29;6.8;;;4.3;;
61499;SDS011;47361;49.996;19.918;2023-06-19T09:42:29;6.8;;;4.3;;
61499;SDS011;47361;49.996;19.918;2023-06-19T09:44:27;6.8;;;4.3;;
61499;SDS011;47361;49.996;19.918;2023-06-19T09:47:30;5.0;;;3.9;;
61499;SDS011;47361;49.996;19.918;2023-06-19T09:54:27;5.6;;;4.0;;
61499;SDS011;47361;49.996;19.918;2023-06-19T09:55:28;6.4;;;4.0;;
61499;SDS011;47361;49.996;19.918;2023-06-19T09:56:27;6.4;;;4.0;;
61499;SDS011;47361;49.996;19.918;2023-06-19T10:00:27;4.6;;;3.7;;
61499;SDS011;47361;49.996;19.918;2023-06-19T10:01:29;4.6;;;3.7;;
61499;SDS011;47361;49.996;19.918;2023-06-19T10:04:27;4.6;;;3.7;;
61499;SDS011;47361;49.996;19.918;2023-06-19T10:10:28;4.1;;;3.8;;
61499;SDS011;47361;49.996;19.918;2023-06-19T10:11:27;4.1;;;3.8;;
61499;SDS011;47361;49.996;19.918;2023-06-19T10:12:37;4.1;;;3.8;;
61499;SDS011;47361;49.996;19.918;2023-06-19T10:13:35;4.1;;;3.8;;
61499;SDS011;47361;49.996;19.918;2023-06-19T10:16:27;4.6;;;3.5;;
61499;SDS011;47361;49.996;19.918;2023-06-19T10:17:29;4.6;;;3.5;;
61499;SDS011;47361;49.996;19.918;2023-06-19T10:18:27;4.6;;;3.5;;
61499;SDS011;47361;49.996;19.918;2023-06-19T10:19:27;4.6;;;3.5;;
61499;SDS011;47361;49.996;19.918;2023-06-19T10:20:28;5.3;;;4.2;;
61499;SDS011;47361;49.996;19.918;2023-06-19T10:21:27;5.3;;;4.2;;
61499;SDS011;47361;49.996;19.918;2023-06-19T10:26:31;4.3;;;3.9;;
61499;SDS011;47361;49.996;19.918;2023-06-19T10:29:38;4.3;;;3.9;;
61499;SDS011;47361;49.996;19.918;2023-06-19T10:30:27;4.4;;;3.9;;
61499;SDS011;47361;49.996;19.918;2023-06-19T10:31:27;4.4;;;3.9;;
61499;SDS011;47361;49.996;19.918;2023-06-19T10:35:27;5.0;;;4.0;;
61499;SDS011;47361;49.996;19.918;2023-06-19T10:36:27;5.0;;;4.0;;
61499;SDS011;47361;49.996;19.918;2023-06-19T10:42:27;4.7;;;3.5;;
61499;SDS011;47361;49.996;19.918;2023-06-19T10:43:27;4.7;;;3.5;;
61499;SDS011;47361;49.996;19.918;2023-06-19T10:44:27;4.7;;;3.5;;
61499;SDS011;47361;49.996;19.918;2023-06-19T10:46:29;4.5;;;4.1;;
61499;SDS011;47361;49.996;19.918;2023-06-19T10:47:27;4.5;;;4.1;;
61499;SDS011;47361;49.996;19.918;2023-06-19T10:49:27;4.5;;;4.1;;
61499;SDS011;47361;49.996;19.918;2023-06-19T10:55:27;6.0;;;4.4;;
61499;SDS011;47361;49.996;19.918;2023-06-19T10:56:27;6.0;;;4.4;;
61499;SDS011;47361;49.996;19.918;2023-06-19T10:57:28;6.0;;;4.4;;
61499;SDS011;47361;49.996;19.918;2023-06-19T11:04:28;7.1;;;3.9;;
61499;SDS011;47361;49.996;19.918;2023-06-19T11:05:27;5.2;;;4.7;;
61499;SDS011;47361;49.996;19.918;2023-06-19T11:06:28;5.2;;;4.7;;
61499;SDS011;47361;49.996;19.918;2023-06-19T11:07:27;5.2;;;4.7;;
61499;SDS011;47361;49.996;19.918;2023-06-19T11:09:30;5.2;;;4.7;;
61499;SDS011;47361;49.996;19.918;2023-06-19T11:12:27;7.7;;;3.9;;
61499;SDS011;47361;49.996;19.918;2023-06-19T11:13:27;7.7;;;3.9;;
61499;SDS011;47361;49.996;19.918;2023-06-19T11:15:28;5.9;;;4.7;;
61499;SDS011;47361;49.996;19.918;2023-06-19T11:17:27;5.9;;;4.7;;
61499;SDS011;47361;49.996;19.918;2023-06-19T11:21:31;4.8;;;3.9;;
61499;SDS011;47361;49.996;19.918;2023-06-19T11:22:37;4.8;;;3.9;;
61499;SDS011;47361;49.996;19.918;2023-06-19T11:24:28;4.8;;;3.9;;
61499;SDS011;47361;49.996;19.918;2023-06-19T11:25:34;12.3;;;4.7;;
61499;SDS011;47361;49.996;19.918;2023-06-19T11:26:27;12.3;;;4.7;;
61499;SDS011;47361;49.996;19.918;2023-06-19T11:27:30;12.3;;;4.7;;
61499;SDS011;47361;49.996;19.918;2023-06-19T11:28:27;12.3;;;4.7;;
61499;SDS011;47361;49.996;19.918;2023-06-19T11:29:29;12.3;;;4.7;;
61499;SDS011;47361;49.996;19.918;2023-06-19T11:30:30;4.6;;;4.1;;
61499;SDS011;47361;49.996;19.918;2023-06-19T11:32:31;4.6;;;4.1;;
61499;SDS011;47361;49.996;19.918;2023-06-19T11:33:27;4.6;;;4.1;;
61499;SDS011;47361;49.996;19.918;2023-06-19T11:36:27;4.7;;;4.3;;
61499;SDS011;47361;49.996;19.918;2023-06-19T11:39:27;4.7;;;4.3;;
61499;SDS011;47361;49.996;19.918;2023-06-19T11:40:27;5.1;;;4.3;;
61499;SDS011;47361;49.996;19.918;2023-06-19T11:42:28;5.1;;;4.3;;
61499;SDS011;47361;49.996;19.918;2023-06-19T11:43:28;5.1;;;4.3;;
61499;SDS011;47361;49.996;19.918;2023-06-19T11:45:27;5.5;;;4.6;;
61499;SDS011;47361;49.996;19.918;2023-06-19T11:46:29;5.5;;;4.6;;
61499;SDS011;47361;49.996;19.918;2023-06-19T11:51:27;10.4;;;4.8;;
61499;SDS011;47361;49.996;19.918;2023-06-19T11:53:27;10.4;;;4.8;;
61499;SDS011;47361;49.996;19.918;2023-06-19T11:55:27;12.3;;;5.2;;
61499;SDS011;47361;49.996;19.918;2023-06-19T11:56:27;12.3;;;5.2;;
61499;SDS011;47361;49.996;19.918;2023-06-19T11:57:27;12.3;;;5.2;;
61499;SDS011;47361;49.996;19.918;2023-06-19T11:58:27;12.3;;;5.2;;
61499;SDS011;47361;49.996;19.918;2023-06-19T12:00:27;5.4;;;4.5;;
61499;SDS011;47361;49.996;19.918;2023-06-19T12:03:27;5.4;;;4.5;;
61499;SDS011;47361;49.996;19.918;2023-06-19T12:04:27;5.4;;;4.5;;
61499;SDS011;47361;49.996;19.918;2023-06-19T12:05:27;5.0;;;4.4;;
61499;SDS011;47361;49.996;19.918;2023-06-19T12:06:27;5.0;;;4.4;;
61499;SDS011;47361;49.996;19.918;2023-06-19T12:07:27;5.0;;;4.4;;
61499;SDS011;47361;49.996;19.918;2023-06-19T12:08:27;5.0;;;4.4;;
61499;SDS011;47361;49.996;19.918;2023-06-19T12:09:27;5.0;;;4.4;;
61499;SDS011;47361;49.996;19.918;2023-06-19T12:10:27;4.7;;;4.2;;
61499;SDS011;47361;49.996;19.918;2023-06-19T12:11:27;4.7;;;4.2;;
61499;SDS011;47361;49.996;19.918;2023-06-19T12:17:27;4.0;;;3.7;;
61499;SDS011;47361;49.996;19.918;2023-06-19T12:25:27;6.8;;;4.4;;
61499;SDS011;47361;49.996;19.918;2023-06-19T12:26:27;6.8;;;4.4;;
61499;SDS011;47361;49.996;19.918;2023-06-19T12:29:27;6.8;;;4.4;;
61499;SDS011;47361;49.996;19.918;2023-06-19T12:30:27;4.1;;;3.6;;
61499;SDS011;47361;49.996;19.918;2023-06-19T12:32:27;4.1;;;3.6;;
61499;SDS011;47361;49.996;19.918;2023-06-19T12:33:27;4.1;;;3.6;;
61499;SDS011;47361;49.996;19.918;2023-06-19T12:36:27;6.3;;;4.3;;
61499;SDS011;47361;49.996;19.918;2023-06-19T12:38:27;6.3;;;4.3;;
61499;SDS011;47361;49.996;19.918;2023-06-19T12:39:27;6.3;;;4.3;;
61499;SDS011;47361;49.996;19.918;2023-06-19T12:40:27;5.4;;;4.8;;
61499;SDS011;47361;49.996;19.918;2023-06-19T12:44:27;5.4;;;4.8;;
61499;SDS011;47361;49.996;19.918;2023-06-19T12:46:27;5.1;;;4.6;;
61499;SDS011;47361;49.996;19.918;2023-06-19T12:48:27;5.1;;;4.6;;
61499;SDS011;47361;49.996;19.918;2023-06-19T12:57:27;6.2;;;4.5;;
61499;SDS011;47361;49.996;19.918;2023-06-19T13:00:27;7.0;;;4.3;;
61499;SDS011;47361;49.996;19.918;2023-06-19T13:02:27;7.0;;;4.3;;
61499;SDS011;47361;49.996;19.918;2023-06-19T13:03:27;7.0;;;4.3;;
61499;SDS011;47361;49.996;19.918;2023-06-19T13:05:27;6.2;;;4.7;;
61499;SDS011;47361;49.996;19.918;2023-06-19T13:06:27;6.2;;;4.7;;
61499;SDS011;47361;49.996;19.918;2023-06-19T13:08:27;6.2;;;4.7;;
61499;SDS011;47361;49.996;19.918;2023-06-19T13:09:27;6.2;;;4.7;;
61499;SDS011;47361;49.996;19.918;2023-06-19T13:10:27;6.0;;;4.4;;
61499;SDS011;47361;49.996;19.918;2023-06-19T13:11:27;6.0;;;4.4;;
61499;SDS011;47361;49.996;19.918;2023-06-19T13:12:27;6.0;;;4.4;;
61499;SDS011;47361;49.996;19.918;2023-06-19T13:13:27;6.0;;;4.4;;
61499;SDS011;47361;49.996;19.918;2023-06-19T13:14:27;6.0;;;4.4;;
61499;SDS011;47361;49.996;19.918;2023-06-19T13:20:27;5.8;;;4.0;;
61499;SDS011;47361;49.996;19.918;2023-06-19T13:21:27;5.8;;;4.0;;
61499;SDS011;47361;49.996;19.918;2023-06-19T13:23:27;5.8;;;4.0;;
61499;SDS011;47361;49.996;19.918;2023-06-19T13:25:27;4.1;;;3.7;;
61499;SDS011;47361;49.996;19.918;2023-06-19T13:30:27;7.0;;;4.0;;
61499;SDS011;47361;49.996;19.918;2023-06-19T13:35:27;6.7;;;5.1;;
61499;SDS011;47361;49.996;19.918;2023-06-19T13:41:27;7.5;;;5.1;;
61499;SDS011;47361;49.996;19.918;2023-06-19T13:44:27;7.5;;;5.1;;
61499;SDS011;47361;49.996;19.918;2023-06-19T13:45:27;8.3;;;5.1;;
61499;SDS011;47361;49.996;19.918;2023-06-19T13:46:27;8.3;;;5.1;;
61499;SDS011;47361;49.996;19.918;2023-06-19T13:47:27;8.3;;;5.1;;
61499;SDS011;47361;49.996;19.918;2023-06-19T13:48:27;8.3;;;5.1;;
61499;SDS011;47361;49.996;19.918;2023-06-19T13:49:27;8.3;;;5.1;;
61499;SDS011;47361;49.996;19.918;2023-06-19T13:50:27;8.3;;;5.2;;
61499;SDS011;47361;49.996;19.918;2023-06-19T13:51:27;8.3;;;5.2;;
61499;SDS011;47361;49.996;19.918;2023-06-19T13:52:27;8.3;;;5.2;;
61499;SDS011;47361;49.996;19.918;2023-06-19T13:53:27;8.3;;;5.2;;
61499;SDS011;47361;49.996;19.918;2023-06-19T13:54:27;8.3;;;5.2;;
61499;SDS011;47361;49.996;19.918;2023-06-19T13:55:27;10.1;;;5.5;;
61499;SDS011;47361;49.996;19.918;2023-06-19T13:56:27;10.1;;;5.5;;
61499;SDS011;47361;49.996;19.918;2023-06-19T13:57:27;10.1;;;5.5;;
61499;SDS011;47361;49.996;19.918;2023-06-19T13:58:27;10.1;;;5.5;;
61499;SDS011;47361;49.996;19.918;2023-06-19T13:59:27;10.1;;;5.5;;
61499;SDS011;47361;49.996;19.918;2023-06-19T14:01:27;8.1;;;5.4;;
61499;SDS011;47361;49.996;19.918;2023-06-19T14:02:27;8.1;;;5.4;;
61499;SDS011;47361;49.996;19.918;2023-06-19T14:03:27;8.1;;;5.4;;
61499;SDS011;47361;49.996;19.918;2023-06-19T14:04:27;8.1;;;5.4;;
61499;SDS011;47361;49.996;19.918;2023-06-19T14:06:27;8.1;;;5.2;;
61499;SDS011;47361;49.996;19.918;2023-06-19T14:07:27;8.1;;;5.2;;
61499;SDS011;47361;49.996;19.918;2023-06-19T14:11:27;7.6;;;4.9;;
61499;SDS011;47361;49.996;19.918;2023-06-19T14:12:27;7.6;;;4.9;;
61499;SDS011;47361;49.996;19.918;2023-06-19T14:13:27;7.6;;;4.9;;
61499;SDS011;47361;49.996;19.918;2023-06-19T14:14:27;7.6;;;4.9;;
61499;SDS011;47361;49.996;19.918;2023-06-19T14:15:27;8.3;;;4.9;;
61499;SDS011;47361;49.996;19.918;2023-06-19T14:18:27;8.3;;;4.9;;
61499;SDS011;47361;49.996;19.918;2023-06-19T14:19:27;8.3;;;4.9;;
61499;SDS011;47361;49.996;19.918;2023-06-19T14:24:27;7.8;;;4.9;;